ELY034 LHBP-LLBG
Flight info
| Callsign | ELY034 |
|---|---|
| Flight time | 2h 32m |
| Altitude | 31000 |
| Route | FAHAZ DCT KEROP DCT PELOV DCT ESIRI DCT NISVA DCT RODIP DCT BELGI UN131 KULAR UT39 TOMBI DCT IDAKU L35 PIKOG L609 ZUKKO |
| Aircraft | B748/H-SDE3FGHIM1M2RWXY/LB1 |
Departure
| Time | 2026-05-06 17:21 |
|---|---|
| Airport | Budapest Liszt Ferenc International Airport (LHBP) |
Arrival
| Time | 2026-05-06 19:53 |
|---|---|
| Airport | Ben Gurion International Airport (LLBG) |
| Time | Latitude | Longitude | Altitude | Speed | Heading |
|---|---|---|---|---|---|
| 2026-05-06 17:06 | 47.43244 | 19.25784 | 464 ft | 0 kts | 40° |
| 2026-05-06 17:10 | 47.43244 | 19.25783 | 464 ft | 0 kts | 40° |
| 2026-05-06 17:13 | 47.43229 | 19.25765 | 462 ft | 3 kts | 40° |
| 2026-05-06 17:13 | 47.43213 | 19.25745 | 459 ft | 3 kts | 40° |
| 2026-05-06 17:13 | 47.43196 | 19.25728 | 459 ft | 3 kts | 4° |
| 2026-05-06 17:14 | 47.43176 | 19.25731 | 458 ft | 3 kts | 321° |
| 2026-05-06 17:14 | 47.43167 | 19.25742 | 461 ft | 0 kts | 304° |
| 2026-05-06 17:15 | 47.43173 | 19.25729 | 458 ft | 5 kts | 305° |
| 2026-05-06 17:15 | 47.43213 | 19.25654 | 464 ft | 13 kts | 310° |
| 2026-05-06 17:15 | 47.43292 | 19.25528 | 464 ft | 18 kts | 314° |
| 2026-05-06 17:15 | 47.43334 | 19.25462 | 464 ft | 0 kts | 312° |
| 2026-05-06 17:16 | 47.43336 | 19.25460 | 464 ft | 1 kts | 313° |
| 2026-05-06 17:16 | 47.43364 | 19.25437 | 464 ft | 6 kts | 346° |
| 2026-05-06 17:16 | 47.43420 | 19.25473 | 464 ft | 14 kts | 43° |
| 2026-05-06 17:17 | 47.43509 | 19.25604 | 464 ft | 19 kts | 44° |
| 2026-05-06 17:17 | 47.43612 | 19.25742 | 464 ft | 21 kts | 40° |
| 2026-05-06 17:17 | 47.43717 | 19.25891 | 464 ft | 22 kts | 44° |
| 2026-05-06 17:17 | 47.43830 | 19.26050 | 464 ft | 23 kts | 45° |
| 2026-05-06 17:18 | 47.43947 | 19.26137 | 463 ft | 15 kts | 341° |
| 2026-05-06 17:18 | 47.44035 | 19.26012 | 465 ft | 23 kts | 313° |
| 2026-05-06 17:18 | 47.44166 | 19.25806 | 465 ft | 32 kts | 310° |
| 2026-05-06 17:18 | 47.44312 | 19.25575 | 465 ft | 27 kts | 329° |
| 2026-05-06 17:19 | 47.44474 | 19.25603 | 467 ft | 21 kts | 44° |
| 2026-05-06 17:19 | 47.44496 | 19.25665 | 470 ft | 0 kts | 71° |
| 2026-05-06 17:19 | 47.44499 | 19.25678 | 472 ft | 6 kts | 71° |
| 2026-05-06 17:19 | 47.44488 | 19.25872 | 479 ft | 40 kts | 117° |
| 2026-05-06 17:20 | 47.44125 | 19.26455 | 475 ft | 114 kts | 134° |
| 2026-05-06 17:20 | 47.43430 | 19.27547 | 468 ft | 174 kts | 134° |
| 2026-05-06 17:20 | 47.42583 | 19.29087 | 698 ft | 203 kts | 129° |
| 2026-05-06 17:20 | 47.41784 | 19.30856 | 1090 ft | 210 kts | 126° |
| 2026-05-06 17:21 | 47.41014 | 19.32713 | 1693 ft | 212 kts | 123° |
| 2026-05-06 17:21 | 47.40284 | 19.34622 | 2394 ft | 220 kts | 123° |
| 2026-05-06 17:21 | 47.39506 | 19.36660 | 2899 ft | 236 kts | 123° |
| 2026-05-06 17:21 | 47.38676 | 19.38798 | 3601 ft | 246 kts | 128° |
| 2026-05-06 17:22 | 47.37448 | 19.40454 | 4933 ft | 239 kts | 154° |
| 2026-05-06 17:22 | 47.35881 | 19.41169 | 6354 ft | 239 kts | 179° |
| 2026-05-06 17:22 | 47.34259 | 19.40782 | 7778 ft | 239 kts | 204° |
| 2026-05-06 17:22 | 47.32901 | 19.39372 | 9235 ft | 244 kts | 229° |
| 2026-05-06 17:23 | 47.31988 | 19.37224 | 10546 ft | 252 kts | 238° |
| 2026-05-06 17:23 | 47.31161 | 19.34905 | 11762 ft | 260 kts | 240° |
| 2026-05-06 17:23 | 47.30292 | 19.32449 | 12602 ft | 281 kts | 239° |
| 2026-05-06 17:23 | 47.29338 | 19.29821 | 13552 ft | 296 kts | 239° |
| 2026-05-06 17:24 | 47.28353 | 19.27121 | 14591 ft | 303 kts | 240° |
| 2026-05-06 17:24 | 47.27346 | 19.24351 | 15617 ft | 310 kts | 240° |
| 2026-05-06 17:24 | 47.26319 | 19.21525 | 16617 ft | 316 kts | 240° |
| 2026-05-06 17:24 | 47.25627 | 19.19625 | 17258 ft | 320 kts | 240° |
| 2026-05-06 17:25 | 47.24564 | 19.16711 | 18218 ft | 325 kts | 240° |
| 2026-05-06 17:25 | 47.23485 | 19.13758 | 18992 ft | 330 kts | 241° |
| 2026-05-06 17:25 | 47.22033 | 19.09783 | 20060 ft | 335 kts | 241° |
| 2026-05-06 17:25 | 47.21281 | 19.07732 | 20585 ft | 338 kts | 240° |
| 2026-05-06 17:26 | 47.19875 | 19.04969 | 21351 ft | 341 kts | 222° |
| 2026-05-06 17:26 | 47.17900 | 19.03019 | 22060 ft | 346 kts | 204° |
| 2026-05-06 17:26 | 47.15560 | 19.02123 | 22741 ft | 354 kts | 185° |
| 2026-05-06 17:26 | 47.13084 | 19.02204 | 23357 ft | 360 kts | 179° |
| 2026-05-06 17:27 | 47.10559 | 19.02505 | 23885 ft | 365 kts | 177° |
| 2026-05-06 17:27 | 47.08022 | 19.02836 | 24404 ft | 369 kts | 178° |
| 2026-05-06 17:27 | 47.05445 | 19.03111 | 24905 ft | 372 kts | 179° |
| 2026-05-06 17:27 | 47.02889 | 19.03357 | 25398 ft | 375 kts | 179° |
| 2026-05-06 17:28 | 47.00234 | 19.03637 | 25876 ft | 378 kts | 178° |
| 2026-05-06 17:28 | 46.97632 | 19.03927 | 26329 ft | 382 kts | 178° |
| 2026-05-06 17:28 | 46.94975 | 19.04215 | 26779 ft | 386 kts | 179° |
| 2026-05-06 17:28 | 46.92258 | 19.04497 | 26930 ft | 397 kts | 179° |
| 2026-05-06 17:29 | 46.89485 | 19.05100 | 27162 ft | 410 kts | 166° |
| 2026-05-06 17:29 | 46.86840 | 19.06756 | 27524 ft | 420 kts | 151° |
| 2026-05-06 17:29 | 46.84340 | 19.09041 | 27871 ft | 426 kts | 150° |
| 2026-05-06 17:29 | 46.81844 | 19.11404 | 28246 ft | 430 kts | 149° |
| 2026-05-06 17:30 | 46.79312 | 19.13788 | 28606 ft | 434 kts | 150° |
| 2026-05-06 17:30 | 46.76750 | 19.16157 | 28983 ft | 437 kts | 150° |
| 2026-05-06 17:30 | 46.74174 | 19.18534 | 29323 ft | 440 kts | 150° |
| 2026-05-06 17:30 | 46.71583 | 19.20945 | 29643 ft | 444 kts | 150° |
| 2026-05-06 17:31 | 46.68971 | 19.23377 | 29980 ft | 447 kts | 150° |
| 2026-05-06 17:31 | 46.63624 | 19.28315 | 30149 ft | 463 kts | 150° |
| 2026-05-06 17:31 | 46.60888 | 19.30845 | 30296 ft | 469 kts | 150° |
| 2026-05-06 17:32 | 46.58125 | 19.33405 | 30501 ft | 473 kts | 150° |
| 2026-05-06 17:32 | 46.55338 | 19.35970 | 30707 ft | 476 kts | 150° |
| 2026-05-06 17:32 | 46.52530 | 19.38545 | 30915 ft | 480 kts | 150° |
| 2026-05-06 17:33 | 46.46809 | 19.43808 | 30913 ft | 494 kts | 150° |
| 2026-05-06 17:33 | 46.40939 | 19.49179 | 30918 ft | 510 kts | 150° |
| 2026-05-06 17:34 | 46.34842 | 19.54758 | 30918 ft | 526 kts | 150° |
| 2026-05-06 17:34 | 46.28606 | 19.60439 | 30911 ft | 530 kts | 150° |
| 2026-05-06 17:35 | 46.22348 | 19.66128 | 30916 ft | 532 kts | 150° |
| 2026-05-06 17:35 | 46.16138 | 19.71944 | 30912 ft | 534 kts | 148° |
| 2026-05-06 17:36 | 46.06861 | 19.80879 | 30911 ft | 534 kts | 148° |
| 2026-05-06 17:36 | 46.00706 | 19.86861 | 30914 ft | 534 kts | 149° |
| 2026-05-06 17:37 | 45.94554 | 19.92762 | 30910 ft | 535 kts | 149° |
| 2026-05-06 17:37 | 45.88369 | 19.98723 | 30909 ft | 535 kts | 149° |
| 2026-05-06 17:38 | 45.82176 | 20.04647 | 30905 ft | 536 kts | 148° |
| 2026-05-06 17:38 | 45.75973 | 20.10581 | 30899 ft | 536 kts | 149° |
| 2026-05-06 17:39 | 45.69750 | 20.16502 | 30898 ft | 536 kts | 149° |
| 2026-05-06 17:39 | 45.63544 | 20.22411 | 30898 ft | 536 kts | 149° |
| 2026-05-06 17:40 | 45.57318 | 20.28297 | 30899 ft | 537 kts | 149° |
| 2026-05-06 17:40 | 45.51092 | 20.34186 | 30905 ft | 537 kts | 149° |
| 2026-05-06 17:41 | 45.44901 | 20.40019 | 30900 ft | 536 kts | 149° |
| 2026-05-06 17:41 | 45.38674 | 20.45873 | 30904 ft | 536 kts | 149° |
| 2026-05-06 17:42 | 45.32438 | 20.51720 | 30909 ft | 536 kts | 149° |
| 2026-05-06 17:42 | 45.26199 | 20.57554 | 30902 ft | 537 kts | 149° |
| 2026-05-06 17:43 | 45.19965 | 20.63368 | 30903 ft | 536 kts | 149° |
| 2026-05-06 17:43 | 45.13710 | 20.69185 | 30916 ft | 537 kts | 149° |
| 2026-05-06 17:44 | 45.07465 | 20.74979 | 30914 ft | 537 kts | 149° |
| 2026-05-06 17:44 | 45.01206 | 20.80770 | 30906 ft | 537 kts | 149° |
| 2026-05-06 17:45 | 44.94999 | 20.86515 | 30909 ft | 538 kts | 147° |
| 2026-05-06 17:45 | 44.88820 | 20.92503 | 30912 ft | 538 kts | 149° |
| 2026-05-06 17:46 | 44.82632 | 20.98442 | 30908 ft | 539 kts | 148° |
| 2026-05-06 17:46 | 44.76441 | 21.04423 | 30908 ft | 540 kts | 148° |
| 2026-05-06 17:47 | 44.70220 | 21.10369 | 30908 ft | 540 kts | 148° |
| 2026-05-06 17:47 | 44.64018 | 21.16320 | 30919 ft | 540 kts | 148° |
| 2026-05-06 17:48 | 44.57793 | 21.22246 | 30919 ft | 540 kts | 148° |
| 2026-05-06 17:48 | 44.51580 | 21.28167 | 30917 ft | 539 kts | 148° |
| 2026-05-06 17:49 | 44.45397 | 21.34031 | 30920 ft | 540 kts | 148° |
| 2026-05-06 17:49 | 44.39172 | 21.39926 | 30922 ft | 540 kts | 148° |
| 2026-05-06 17:50 | 44.32940 | 21.45810 | 30927 ft | 541 kts | 147° |
| 2026-05-06 17:50 | 44.26833 | 21.52000 | 30938 ft | 543 kts | 146° |
| 2026-05-06 17:51 | 44.20705 | 21.58154 | 30939 ft | 543 kts | 146° |
| 2026-05-06 17:51 | 44.14594 | 21.64357 | 30940 ft | 543 kts | 146° |
| 2026-05-06 17:52 | 44.08459 | 21.70510 | 30940 ft | 543 kts | 146° |
| 2026-05-06 17:52 | 44.02371 | 21.76640 | 30941 ft | 543 kts | 146° |
| 2026-05-06 17:53 | 43.96248 | 21.82763 | 30946 ft | 543 kts | 146° |
| 2026-05-06 17:53 | 43.90109 | 21.88902 | 30947 ft | 543 kts | 146° |
| 2026-05-06 17:54 | 43.83971 | 21.95016 | 30947 ft | 543 kts | 146° |
| 2026-05-06 17:54 | 43.77826 | 22.01124 | 30946 ft | 543 kts | 146° |
| 2026-05-06 17:55 | 43.71678 | 22.07218 | 30948 ft | 543 kts | 146° |
| 2026-05-06 17:55 | 43.65534 | 22.13294 | 30946 ft | 543 kts | 146° |
| 2026-05-06 17:56 | 43.59381 | 22.19362 | 30953 ft | 543 kts | 146° |
| 2026-05-06 17:56 | 43.53259 | 22.25382 | 30955 ft | 544 kts | 146° |
| 2026-05-06 17:57 | 43.47089 | 22.31439 | 30959 ft | 544 kts | 146° |
| 2026-05-06 17:57 | 43.40914 | 22.37480 | 30964 ft | 545 kts | 146° |
| 2026-05-06 17:58 | 43.34729 | 22.43517 | 30968 ft | 545 kts | 146° |
| 2026-05-06 17:58 | 43.28542 | 22.49541 | 30974 ft | 545 kts | 146° |
| 2026-05-06 17:59 | 43.22379 | 22.55526 | 30980 ft | 545 kts | 146° |
| 2026-05-06 17:59 | 43.16186 | 22.61528 | 30986 ft | 545 kts | 146° |
| 2026-05-06 18:00 | 43.09971 | 22.67532 | 30985 ft | 547 kts | 146° |
| 2026-05-06 18:00 | 43.03749 | 22.73531 | 30990 ft | 547 kts | 146° |
| 2026-05-06 18:01 | 42.97530 | 22.79556 | 30996 ft | 548 kts | 143° |
| 2026-05-06 18:01 | 42.91881 | 22.86572 | 31006 ft | 550 kts | 137° |
| 2026-05-06 18:02 | 42.86296 | 22.93686 | 31007 ft | 550 kts | 139° |
| 2026-05-06 18:02 | 42.80697 | 23.00713 | 31002 ft | 550 kts | 138° |
| 2026-05-06 18:03 | 42.75087 | 23.07807 | 31008 ft | 551 kts | 138° |
| 2026-05-06 18:03 | 42.69440 | 23.14876 | 31005 ft | 551 kts | 138° |
| 2026-05-06 18:04 | 42.63790 | 23.21966 | 31007 ft | 552 kts | 138° |
| 2026-05-06 18:04 | 42.58130 | 23.29028 | 31006 ft | 553 kts | 138° |
| 2026-05-06 18:05 | 42.52458 | 23.36099 | 31010 ft | 554 kts | 138° |
| 2026-05-06 18:05 | 42.46769 | 23.43167 | 31016 ft | 555 kts | 138° |
| 2026-05-06 18:06 | 42.41073 | 23.50229 | 31026 ft | 555 kts | 138° |
| 2026-05-06 18:06 | 42.35363 | 23.57288 | 31041 ft | 556 kts | 138° |
| 2026-05-06 18:07 | 42.29683 | 23.64293 | 31041 ft | 556 kts | 138° |
| 2026-05-06 18:07 | 42.23958 | 23.71333 | 31046 ft | 557 kts | 138° |
| 2026-05-06 18:08 | 42.18220 | 23.78372 | 31049 ft | 557 kts | 138° |
| 2026-05-06 18:08 | 42.12479 | 23.85397 | 31043 ft | 558 kts | 138° |
| 2026-05-06 18:09 | 42.06724 | 23.92421 | 31048 ft | 559 kts | 138° |
| 2026-05-06 18:09 | 42.00963 | 23.99435 | 31044 ft | 559 kts | 138° |
| 2026-05-06 18:10 | 41.95185 | 24.06452 | 31049 ft | 560 kts | 138° |
| 2026-05-06 18:10 | 41.89403 | 24.13455 | 31052 ft | 560 kts | 138° |
| 2026-05-06 18:11 | 41.84578 | 24.19286 | 31052 ft | 560 kts | 138° |
| 2026-05-06 18:11 | 41.77842 | 24.27406 | 31055 ft | 561 kts | 138° |
| 2026-05-06 18:12 | 41.72026 | 24.34396 | 31061 ft | 562 kts | 138° |
| 2026-05-06 18:12 | 41.66211 | 24.41368 | 31060 ft | 562 kts | 138° |
| 2026-05-06 18:13 | 41.61377 | 24.47157 | 31057 ft | 562 kts | 138° |
| 2026-05-06 18:13 | 41.55538 | 24.54120 | 31061 ft | 563 kts | 138° |
| 2026-05-06 18:14 | 41.48638 | 24.62063 | 31066 ft | 563 kts | 141° |
| 2026-05-06 18:14 | 41.43556 | 24.67584 | 31065 ft | 563 kts | 141° |
| 2026-05-06 18:15 | 41.37242 | 24.73633 | 31062 ft | 563 kts | 150° |
| 2026-05-06 18:15 | 41.30352 | 24.78520 | 31065 ft | 560 kts | 158° |
| 2026-05-06 18:16 | 41.23024 | 24.82067 | 31053 ft | 560 kts | 164° |
| 2026-05-06 18:16 | 41.15563 | 24.85134 | 31049 ft | 561 kts | 165° |
| 2026-05-06 18:17 | 41.08081 | 24.88097 | 31044 ft | 561 kts | 165° |
| 2026-05-06 18:17 | 41.00591 | 24.91033 | 31039 ft | 561 kts | 165° |
| 2026-05-06 18:18 | 40.93102 | 24.93965 | 31037 ft | 561 kts | 165° |
| 2026-05-06 18:18 | 40.85622 | 24.96892 | 31037 ft | 562 kts | 165° |
| 2026-05-06 18:19 | 40.78128 | 24.99821 | 31039 ft | 561 kts | 165° |
| 2026-05-06 18:19 | 40.70971 | 25.02608 | 31044 ft | 562 kts | 165° |
| 2026-05-06 18:20 | 40.63466 | 25.05527 | 31044 ft | 562 kts | 165° |
| 2026-05-06 18:20 | 40.55978 | 25.08280 | 31044 ft | 562 kts | 167° |
| 2026-05-06 18:21 | 40.48421 | 25.10904 | 31047 ft | 561 kts | 167° |
| 2026-05-06 18:21 | 40.40872 | 25.13489 | 31040 ft | 560 kts | 167° |
| 2026-05-06 18:22 | 40.33326 | 25.16067 | 31047 ft | 560 kts | 167° |
| 2026-05-06 18:22 | 40.25763 | 25.18641 | 31046 ft | 561 kts | 167° |
| 2026-05-06 18:23 | 40.18198 | 25.21200 | 31044 ft | 561 kts | 167° |
| 2026-05-06 18:23 | 40.10681 | 25.23737 | 31044 ft | 562 kts | 167° |
| 2026-05-06 18:24 | 40.03060 | 25.26306 | 31043 ft | 562 kts | 167° |
| 2026-05-06 18:24 | 39.95538 | 25.28839 | 31042 ft | 561 kts | 167° |
| 2026-05-06 18:25 | 39.87987 | 25.31378 | 31045 ft | 560 kts | 167° |
| 2026-05-06 18:25 | 39.80426 | 25.33919 | 31045 ft | 560 kts | 167° |
| 2026-05-06 18:26 | 39.72882 | 25.36454 | 31048 ft | 560 kts | 167° |
| 2026-05-06 18:26 | 39.65317 | 25.38994 | 31053 ft | 560 kts | 167° |
| 2026-05-06 18:27 | 39.57769 | 25.41529 | 31061 ft | 560 kts | 167° |
| 2026-05-06 18:27 | 39.50225 | 25.44068 | 31059 ft | 560 kts | 167° |
| 2026-05-06 18:28 | 39.42731 | 25.46593 | 31059 ft | 560 kts | 167° |
| 2026-05-06 18:28 | 39.35190 | 25.49138 | 31061 ft | 560 kts | 167° |
| 2026-05-06 18:29 | 39.27644 | 25.51686 | 31058 ft | 560 kts | 167° |
| 2026-05-06 18:29 | 39.20112 | 25.54234 | 31063 ft | 559 kts | 167° |
| 2026-05-06 18:30 | 39.12587 | 25.56782 | 31060 ft | 559 kts | 167° |
| 2026-05-06 18:30 | 39.05066 | 25.59332 | 31069 ft | 559 kts | 167° |
| 2026-05-06 18:31 | 38.97597 | 25.61867 | 31073 ft | 558 kts | 167° |
| 2026-05-06 18:31 | 38.90078 | 25.64423 | 31077 ft | 558 kts | 167° |
| 2026-05-06 18:32 | 38.82572 | 25.66976 | 31068 ft | 559 kts | 167° |
| 2026-05-06 18:32 | 38.75046 | 25.69536 | 31073 ft | 559 kts | 167° |
| 2026-05-06 18:33 | 38.67527 | 25.72094 | 31069 ft | 559 kts | 167° |
| 2026-05-06 18:33 | 38.60004 | 25.74655 | 31069 ft | 559 kts | 167° |
| 2026-05-06 18:34 | 38.52484 | 25.77213 | 31069 ft | 559 kts | 167° |
| 2026-05-06 18:34 | 38.44962 | 25.79772 | 31070 ft | 559 kts | 167° |
| 2026-05-06 18:35 | 38.37487 | 25.82315 | 31059 ft | 559 kts | 167° |
| 2026-05-06 18:35 | 38.29971 | 25.84872 | 31068 ft | 559 kts | 167° |
| 2026-05-06 18:36 | 38.22438 | 25.87433 | 31066 ft | 559 kts | 167° |
| 2026-05-06 18:36 | 38.14919 | 25.89988 | 31073 ft | 559 kts | 167° |
| 2026-05-06 18:37 | 38.07390 | 25.92545 | 31067 ft | 559 kts | 167° |
| 2026-05-06 18:37 | 37.99878 | 25.95096 | 31070 ft | 559 kts | 167° |
| 2026-05-06 18:38 | 37.92411 | 25.97631 | 31074 ft | 559 kts | 167° |
| 2026-05-06 18:38 | 37.84896 | 26.00180 | 31078 ft | 559 kts | 167° |
| 2026-05-06 18:39 | 37.77387 | 26.02729 | 31071 ft | 559 kts | 167° |
| 2026-05-06 18:40 | 37.66117 | 26.06557 | 31078 ft | 558 kts | 167° |
| 2026-05-06 18:40 | 37.58607 | 26.09106 | 31080 ft | 558 kts | 167° |
| 2026-05-06 18:41 | 37.51098 | 26.11658 | 31087 ft | 559 kts | 167° |
| 2026-05-06 18:41 | 37.43597 | 26.14203 | 31089 ft | 558 kts | 167° |
| 2026-05-06 18:42 | 37.36102 | 26.16746 | 31087 ft | 558 kts | 167° |
| 2026-05-06 18:42 | 37.28650 | 26.19276 | 31083 ft | 557 kts | 167° |
| 2026-05-06 18:43 | 37.21157 | 26.21823 | 31079 ft | 557 kts | 167° |
| 2026-05-06 18:43 | 37.13673 | 26.24369 | 31079 ft | 557 kts | 166° |
| 2026-05-06 18:44 | 37.06505 | 26.27078 | 31082 ft | 557 kts | 165° |
| 2026-05-06 18:44 | 36.99154 | 26.30248 | 31085 ft | 559 kts | 162° |
| 2026-05-06 18:45 | 36.91852 | 26.33636 | 31083 ft | 560 kts | 161° |
| 2026-05-06 18:45 | 36.84597 | 26.37056 | 31084 ft | 560 kts | 161° |
| 2026-05-06 18:46 | 36.77313 | 26.40506 | 31080 ft | 560 kts | 161° |
| 2026-05-06 18:46 | 36.70024 | 26.43961 | 31080 ft | 559 kts | 161° |
| 2026-05-06 18:47 | 36.62749 | 26.47409 | 31085 ft | 559 kts | 161° |
| 2026-05-06 18:47 | 36.55478 | 26.50856 | 31084 ft | 559 kts | 161° |
| 2026-05-06 18:48 | 36.48254 | 26.54279 | 31088 ft | 559 kts | 161° |
| 2026-05-06 18:48 | 36.40995 | 26.57721 | 31084 ft | 558 kts | 161° |
| 2026-05-06 18:49 | 36.33827 | 26.61410 | 31111 ft | 560 kts | 150° |
| 2026-05-06 18:49 | 36.30694 | 26.64285 | 31110 ft | 563 kts | 138° |
| 2026-05-06 18:49 | 36.27928 | 26.67723 | 31092 ft | 563 kts | 132° |
| 2026-05-06 18:50 | 36.22895 | 26.75149 | 31112 ft | 563 kts | 128° |
| 2026-05-06 18:50 | 36.18577 | 26.83205 | 31110 ft | 562 kts | 112° |
| 2026-05-06 18:51 | 36.16058 | 26.92331 | 31097 ft | 560 kts | 104° |
| 2026-05-06 18:51 | 36.13771 | 27.01550 | 31093 ft | 562 kts | 109° |
| 2026-05-06 18:52 | 36.10620 | 27.10406 | 31095 ft | 563 kts | 114° |
| 2026-05-06 18:52 | 36.07662 | 27.19285 | 31095 ft | 562 kts | 108° |
| 2026-05-06 18:53 | 36.04747 | 27.28262 | 31092 ft | 564 kts | 112° |
| 2026-05-06 18:53 | 36.01721 | 27.37196 | 31095 ft | 563 kts | 110° |
| 2026-05-06 18:54 | 35.98779 | 27.46187 | 31097 ft | 565 kts | 111° |
| 2026-05-06 18:54 | 35.95749 | 27.55133 | 31097 ft | 565 kts | 110° |
| 2026-05-06 18:55 | 35.92769 | 27.64122 | 31096 ft | 565 kts | 111° |
| 2026-05-06 18:55 | 35.89754 | 27.73030 | 31098 ft | 566 kts | 111° |
| 2026-05-06 18:56 | 35.86747 | 27.81993 | 31093 ft | 566 kts | 111° |
| 2026-05-06 18:56 | 35.83704 | 27.90972 | 31095 ft | 566 kts | 111° |
| 2026-05-06 18:57 | 35.80671 | 27.99934 | 31095 ft | 567 kts | 111° |
| 2026-05-06 18:57 | 35.77624 | 28.08886 | 31093 ft | 567 kts | 111° |
| 2026-05-06 18:58 | 35.74568 | 28.17848 | 31092 ft | 567 kts | 111° |
| 2026-05-06 18:58 | 35.71505 | 28.26804 | 31095 ft | 568 kts | 111° |
| 2026-05-06 18:59 | 35.68449 | 28.35711 | 31095 ft | 569 kts | 111° |
| 2026-05-06 18:59 | 35.65362 | 28.44687 | 31095 ft | 569 kts | 111° |
| 2026-05-06 19:00 | 35.62270 | 28.53648 | 31096 ft | 570 kts | 111° |
| 2026-05-06 19:00 | 35.59170 | 28.62605 | 31099 ft | 570 kts | 111° |
| 2026-05-06 19:01 | 35.56060 | 28.71567 | 31094 ft | 570 kts | 111° |
| 2026-05-06 19:01 | 35.52938 | 28.80535 | 31097 ft | 570 kts | 111° |
| 2026-05-06 19:02 | 35.49834 | 28.89430 | 31097 ft | 571 kts | 111° |
| 2026-05-06 19:02 | 35.46698 | 28.98384 | 31104 ft | 571 kts | 111° |
| 2026-05-06 19:03 | 35.43558 | 29.07330 | 31099 ft | 571 kts | 111° |
| 2026-05-06 19:03 | 35.40410 | 29.16272 | 31100 ft | 571 kts | 111° |
| 2026-05-06 19:04 | 35.37252 | 29.25214 | 31102 ft | 572 kts | 111° |
| 2026-05-06 19:04 | 35.34623 | 29.32647 | 31104 ft | 572 kts | 111° |
| 2026-05-06 19:05 | 35.31448 | 29.41603 | 31106 ft | 573 kts | 112° |
| 2026-05-06 19:05 | 35.28260 | 29.50533 | 31107 ft | 573 kts | 111° |
| 2026-05-06 19:06 | 35.25082 | 29.59466 | 31097 ft | 573 kts | 112° |
| 2026-05-06 19:06 | 35.21873 | 29.68404 | 31103 ft | 573 kts | 112° |
| 2026-05-06 19:07 | 35.18689 | 29.77281 | 31107 ft | 573 kts | 112° |
| 2026-05-06 19:07 | 35.15467 | 29.86219 | 31105 ft | 573 kts | 112° |
| 2026-05-06 19:08 | 35.12249 | 29.95140 | 31098 ft | 574 kts | 112° |
| 2026-05-06 19:08 | 35.09018 | 30.04057 | 31103 ft | 574 kts | 112° |
| 2026-05-06 19:09 | 35.05787 | 30.12984 | 31100 ft | 574 kts | 112° |
| 2026-05-06 19:09 | 35.02549 | 30.21853 | 31098 ft | 575 kts | 112° |
| 2026-05-06 19:10 | 34.99296 | 30.30774 | 31097 ft | 575 kts | 112° |
| 2026-05-06 19:10 | 34.96034 | 30.39674 | 31103 ft | 575 kts | 113° |
| 2026-05-06 19:11 | 34.92765 | 30.48585 | 31101 ft | 576 kts | 113° |
| 2026-05-06 19:11 | 34.89488 | 30.57483 | 31104 ft | 576 kts | 113° |
| 2026-05-06 19:12 | 34.86200 | 30.66390 | 31098 ft | 576 kts | 113° |
| 2026-05-06 19:12 | 34.82915 | 30.75263 | 31101 ft | 577 kts | 113° |
| 2026-05-06 19:13 | 34.79622 | 30.84127 | 31102 ft | 577 kts | 113° |
| 2026-05-06 19:13 | 34.76306 | 30.93023 | 31106 ft | 578 kts | 113° |
| 2026-05-06 19:14 | 34.72987 | 31.01936 | 31102 ft | 578 kts | 113° |
| 2026-05-06 19:14 | 34.69646 | 31.10834 | 31101 ft | 578 kts | 114° |
| 2026-05-06 19:15 | 34.66304 | 31.19750 | 31107 ft | 579 kts | 114° |
| 2026-05-06 19:15 | 34.62973 | 31.28595 | 31102 ft | 580 kts | 114° |
| 2026-05-06 19:16 | 34.59614 | 31.37492 | 31109 ft | 580 kts | 114° |
| 2026-05-06 19:16 | 34.56243 | 31.46399 | 31102 ft | 581 kts | 114° |
| 2026-05-06 19:17 | 34.52861 | 31.55309 | 31112 ft | 581 kts | 114° |
| 2026-05-06 19:17 | 34.49473 | 31.64214 | 31110 ft | 582 kts | 114° |
| 2026-05-06 19:18 | 34.46076 | 31.73115 | 31098 ft | 582 kts | 114° |
| 2026-05-06 19:18 | 34.42678 | 31.82002 | 31105 ft | 578 kts | 114° |
| 2026-05-06 19:18 | 34.41009 | 31.86351 | 31078 ft | 560 kts | 114° |
| 2026-05-06 19:19 | 34.39507 | 31.90266 | 31082 ft | 543 kts | 115° |
| 2026-05-06 19:19 | 34.36329 | 31.98534 | 31092 ft | 553 kts | 114° |
| 2026-05-06 19:20 | 34.33020 | 32.07122 | 31106 ft | 573 kts | 115° |
| 2026-05-06 19:20 | 34.29611 | 32.15923 | 31096 ft | 580 kts | 115° |
| 2026-05-06 19:21 | 34.26209 | 32.24729 | 31089 ft | 581 kts | 115° |
| 2026-05-06 19:21 | 34.22766 | 32.33563 | 31099 ft | 580 kts | 115° |
| 2026-05-06 19:22 | 34.19333 | 32.42388 | 31088 ft | 580 kts | 115° |
| 2026-05-06 19:22 | 34.15885 | 32.51203 | 31098 ft | 580 kts | 116° |
| 2026-05-06 19:23 | 34.12432 | 32.60016 | 31105 ft | 580 kts | 116° |
| 2026-05-06 19:23 | 34.08379 | 32.68383 | 31078 ft | 577 kts | 131° |
| 2026-05-06 19:23 | 34.05632 | 32.71815 | 31098 ft | 573 kts | 142° |
| 2026-05-06 19:24 | 34.02448 | 32.74649 | 31094 ft | 567 kts | 152° |
| 2026-05-06 19:24 | 33.95656 | 32.79452 | 31093 ft | 566 kts | 153° |
| 2026-05-06 19:25 | 33.89236 | 32.84373 | 31097 ft | 567 kts | 152° |
| 2026-05-06 19:25 | 33.82512 | 32.89302 | 31095 ft | 564 kts | 153° |
| 2026-05-06 19:26 | 33.75823 | 32.94277 | 31093 ft | 564 kts | 152° |
| 2026-05-06 19:26 | 33.69200 | 32.99178 | 31082 ft | 562 kts | 153° |
| 2026-05-06 19:27 | 33.62499 | 33.04117 | 31084 ft | 561 kts | 152° |
| 2026-05-06 19:27 | 33.55897 | 33.08996 | 31084 ft | 561 kts | 153° |
| 2026-05-06 19:28 | 33.49249 | 33.13877 | 31085 ft | 559 kts | 152° |
| 2026-05-06 19:28 | 33.42646 | 33.18735 | 31081 ft | 547 kts | 153° |
| 2026-05-06 19:28 | 33.39459 | 33.21074 | 31078 ft | 528 kts | 153° |
| 2026-05-06 19:29 | 33.36380 | 33.23327 | 31075 ft | 511 kts | 153° |
| 2026-05-06 19:29 | 33.30326 | 33.27744 | 31085 ft | 512 kts | 153° |
| 2026-05-06 19:30 | 33.24238 | 33.32204 | 31083 ft | 513 kts | 153° |
| 2026-05-06 19:30 | 33.18158 | 33.36638 | 31080 ft | 511 kts | 153° |
| 2026-05-06 19:31 | 33.12086 | 33.41051 | 31070 ft | 510 kts | 153° |
| 2026-05-06 19:31 | 33.09062 | 33.43256 | 30926 ft | 511 kts | 153° |
| 2026-05-06 19:31 | 33.02978 | 33.47678 | 29577 ft | 509 kts | 153° |
| 2026-05-06 19:32 | 32.99963 | 33.49865 | 28796 ft | 507 kts | 153° |
| 2026-05-06 19:32 | 32.96953 | 33.52046 | 28001 ft | 505 kts | 153° |
| 2026-05-06 19:32 | 32.93961 | 33.54212 | 27216 ft | 503 kts | 153° |
| 2026-05-06 19:32 | 32.90983 | 33.56365 | 26487 ft | 500 kts | 153° |
| 2026-05-06 19:33 | 32.88055 | 33.58484 | 25784 ft | 498 kts | 153° |
| 2026-05-06 19:33 | 32.85120 | 33.60612 | 25563 ft | 483 kts | 153° |
| 2026-05-06 19:33 | 32.82392 | 33.62840 | 25598 ft | 472 kts | 143° |
| 2026-05-06 19:33 | 32.79996 | 33.65555 | 25183 ft | 481 kts | 138° |
| 2026-05-06 19:34 | 32.77672 | 33.68424 | 24458 ft | 483 kts | 136° |
| 2026-05-06 19:34 | 32.75375 | 33.71337 | 23755 ft | 481 kts | 136° |
| 2026-05-06 19:34 | 32.73118 | 33.74140 | 22813 ft | 458 kts | 137° |
| 2026-05-06 19:34 | 32.71089 | 33.76601 | 21918 ft | 442 kts | 137° |
| 2026-05-06 19:35 | 32.68984 | 33.79169 | 20983 ft | 427 kts | 137° |
| 2026-05-06 19:35 | 32.66962 | 33.81678 | 20106 ft | 413 kts | 137° |
| 2026-05-06 19:35 | 32.64996 | 33.84101 | 19244 ft | 402 kts | 137° |
| 2026-05-06 19:35 | 32.63070 | 33.86455 | 18424 ft | 392 kts | 137° |
| 2026-05-06 19:36 | 32.61200 | 33.88751 | 17479 ft | 383 kts | 137° |
| 2026-05-06 19:36 | 32.59371 | 33.91000 | 16578 ft | 375 kts | 137° |
| 2026-05-06 19:36 | 32.57574 | 33.93194 | 15699 ft | 367 kts | 137° |
| 2026-05-06 19:36 | 32.55807 | 33.95356 | 14849 ft | 361 kts | 137° |
| 2026-05-06 19:37 | 32.54113 | 33.97464 | 14043 ft | 355 kts | 136° |
| 2026-05-06 19:37 | 32.52433 | 33.99586 | 13147 ft | 350 kts | 136° |
| 2026-05-06 19:37 | 32.50771 | 34.01668 | 12257 ft | 345 kts | 136° |
| 2026-05-06 19:37 | 32.49657 | 34.03051 | 11669 ft | 341 kts | 136° |
| 2026-05-06 19:38 | 32.47511 | 34.05721 | 10614 ft | 333 kts | 135° |
| 2026-05-06 19:38 | 32.45950 | 34.07673 | 10172 ft | 317 kts | 135° |
| 2026-05-06 19:38 | 32.44490 | 34.09496 | 10079 ft | 291 kts | 135° |
| 2026-05-06 19:38 | 32.43108 | 34.11107 | 10077 ft | 284 kts | 147° |
| 2026-05-06 19:39 | 32.41362 | 34.12075 | 10123 ft | 271 kts | 167° |
| 2026-05-06 19:39 | 32.39503 | 34.12623 | 9870 ft | 278 kts | 171° |
| 2026-05-06 19:39 | 32.37610 | 34.13120 | 9525 ft | 277 kts | 169° |
| 2026-05-06 19:39 | 32.35756 | 34.13670 | 9179 ft | 273 kts | 167° |
| 2026-05-06 19:40 | 32.33947 | 34.14237 | 8904 ft | 265 kts | 167° |
| 2026-05-06 19:40 | 32.32151 | 34.14787 | 8655 ft | 266 kts | 167° |
| 2026-05-06 19:40 | 32.30360 | 34.15321 | 8394 ft | 265 kts | 167° |
| 2026-05-06 19:40 | 32.28568 | 34.15857 | 8139 ft | 264 kts | 167° |
| 2026-05-06 19:41 | 32.26792 | 34.16392 | 7889 ft | 263 kts | 167° |
| 2026-05-06 19:41 | 32.25021 | 34.16926 | 7640 ft | 262 kts | 166° |
| 2026-05-06 19:41 | 32.23251 | 34.17459 | 7392 ft | 261 kts | 166° |
| 2026-05-06 19:41 | 32.21492 | 34.17988 | 7151 ft | 260 kts | 166° |
| 2026-05-06 19:42 | 32.19740 | 34.18514 | 6915 ft | 259 kts | 166° |
| 2026-05-06 19:42 | 32.17992 | 34.19039 | 6684 ft | 260 kts | 166° |
| 2026-05-06 19:42 | 32.16239 | 34.19566 | 6462 ft | 259 kts | 165° |
| 2026-05-06 19:42 | 32.14485 | 34.20094 | 6215 ft | 261 kts | 166° |
| 2026-05-06 19:43 | 32.12715 | 34.20626 | 5974 ft | 263 kts | 166° |
| 2026-05-06 19:43 | 32.10958 | 34.21153 | 5724 ft | 265 kts | 166° |
| 2026-05-06 19:43 | 32.09166 | 34.21690 | 5499 ft | 266 kts | 166° |
| 2026-05-06 19:43 | 32.07375 | 34.22237 | 5314 ft | 265 kts | 162° |
| 2026-05-06 19:44 | 32.05786 | 34.23289 | 5133 ft | 263 kts | 134° |
| 2026-05-06 19:44 | 32.04838 | 34.25097 | 4969 ft | 260 kts | 104° |
| 2026-05-06 19:44 | 32.04616 | 34.27191 | 4795 ft | 257 kts | 91° |
| 2026-05-06 19:44 | 32.04548 | 34.29273 | 4614 ft | 248 kts | 91° |
| 2026-05-06 19:45 | 32.04458 | 34.31336 | 4433 ft | 251 kts | 92° |
| 2026-05-06 19:45 | 32.04339 | 34.33399 | 4246 ft | 251 kts | 93° |
| 2026-05-06 19:45 | 32.04221 | 34.35455 | 4054 ft | 251 kts | 92° |
| 2026-05-06 19:45 | 32.04112 | 34.37503 | 3857 ft | 251 kts | 92° |
| 2026-05-06 19:46 | 32.04006 | 34.39377 | 3679 ft | 250 kts | 92° |
| 2026-05-06 19:46 | 32.03764 | 34.41395 | 3490 ft | 249 kts | 105° |
| 2026-05-06 19:46 | 32.03186 | 34.43328 | 3299 ft | 249 kts | 110° |
| 2026-05-06 19:46 | 32.02545 | 34.45215 | 3175 ft | 247 kts | 111° |
| 2026-05-06 19:47 | 32.01893 | 34.47097 | 3062 ft | 248 kts | 111° |
| 2026-05-06 19:47 | 32.01238 | 34.48984 | 2937 ft | 252 kts | 111° |
| 2026-05-06 19:47 | 32.00573 | 34.50891 | 2804 ft | 251 kts | 110° |
| 2026-05-06 19:47 | 31.99909 | 34.52793 | 2670 ft | 252 kts | 110° |
| 2026-05-06 19:48 | 31.99244 | 34.54697 | 2524 ft | 252 kts | 110° |
| 2026-05-06 19:48 | 31.98576 | 34.56603 | 2508 ft | 253 kts | 110° |
| 2026-05-06 19:48 | 31.97914 | 34.58486 | 2497 ft | 252 kts | 111° |
| 2026-05-06 19:48 | 31.97469 | 34.60458 | 2491 ft | 250 kts | 89° |
| 2026-05-06 19:49 | 31.97736 | 34.62453 | 2498 ft | 247 kts | 76° |
| 2026-05-06 19:49 | 31.98062 | 34.64450 | 2503 ft | 247 kts | 78° |
| 2026-05-06 19:49 | 31.98359 | 34.66396 | 2483 ft | 230 kts | 78° |
| 2026-05-06 19:49 | 31.98615 | 34.68171 | 2481 ft | 215 kts | 78° |
| 2026-05-06 19:50 | 31.98869 | 34.69879 | 2501 ft | 210 kts | 78° |
| 2026-05-06 19:50 | 31.99120 | 34.71557 | 2503 ft | 206 kts | 78° |
| 2026-05-06 19:50 | 31.99364 | 34.73182 | 2301 ft | 197 kts | 78° |
| 2026-05-06 19:50 | 31.99602 | 34.74767 | 2038 ft | 194 kts | 78° |
| 2026-05-06 19:51 | 31.99837 | 34.76335 | 1776 ft | 193 kts | 78° |
| 2026-05-06 19:51 | 32.00058 | 34.77802 | 1526 ft | 171 kts | 78° |
| 2026-05-06 19:51 | 32.00253 | 34.79115 | 1311 ft | 158 kts | 78° |
| 2026-05-06 19:51 | 32.00444 | 34.80384 | 1111 ft | 156 kts | 78° |
| 2026-05-06 19:52 | 32.00630 | 34.81628 | 910 ft | 156 kts | 78° |
| 2026-05-06 19:52 | 32.00818 | 34.82885 | 703 ft | 158 kts | 79° |
| 2026-05-06 19:52 | 32.01007 | 34.84148 | 489 ft | 155 kts | 78° |
| 2026-05-06 19:52 | 32.01197 | 34.85392 | 262 ft | 153 kts | 77° |
| 2026-05-06 19:53 | 32.01381 | 34.86602 | 131 ft | 143 kts | 77° |
| 2026-05-06 19:53 | 32.01537 | 34.87627 | 125 ft | 102 kts | 81° |
| 2026-05-06 19:53 | 32.01602 | 34.88161 | 123 ft | 36 kts | 90° |
| 2026-05-06 19:53 | 32.01583 | 34.88352 | 123 ft | 34 kts | 105° |
| 2026-05-06 19:54 | 32.01516 | 34.88567 | 122 ft | 16 kts | 113° |
| 2026-05-06 19:54 | 32.01436 | 34.88617 | 126 ft | 15 kts | 198° |
| 2026-05-06 19:54 | 32.01353 | 34.88512 | 124 ft | 23 kts | 229° |
| 2026-05-06 19:54 | 32.01206 | 34.88363 | 124 ft | 32 kts | 213° |
| 2026-05-06 19:55 | 32.01012 | 34.88228 | 124 ft | 32 kts | 211° |
| 2026-05-06 19:55 | 32.00823 | 34.88092 | 122 ft | 32 kts | 212° |
| 2026-05-06 19:55 | 32.00640 | 34.87960 | 122 ft | 29 kts | 212° |
| 2026-05-06 19:55 | 32.00506 | 34.87860 | 123 ft | 21 kts | 211° |
| 2026-05-06 19:56 | 32.00411 | 34.87766 | 122 ft | 12 kts | 253° |
| 2026-05-06 19:56 | 32.00431 | 34.87720 | 124 ft | 10 kts | 324° |
| 2026-05-06 19:56 | 32.00523 | 34.87674 | 123 ft | 15 kts | 339° |
| 2026-05-06 19:56 | 32.00612 | 34.87612 | 122 ft | 15 kts | 316° |
| 2026-05-06 19:57 | 32.00673 | 34.87519 | 123 ft | 14 kts | 305° |
| 2026-05-06 19:57 | 32.00706 | 34.87421 | 126 ft | 11 kts | 272° |
| 2026-05-06 19:57 | 32.00705 | 34.87342 | 127 ft | 9 kts | 280° |
| 2026-05-06 19:57 | 32.00725 | 34.87262 | 123 ft | 11 kts | 283° |
| 2026-05-06 19:58 | 32.00727 | 34.87188 | 123 ft | 7 kts | 250° |
| 2026-05-06 19:58 | 32.00702 | 34.87160 | 124 ft | 2 kts | 205° |
| 2026-05-06 19:58 | 32.00690 | 34.87158 | 123 ft | 3 kts | 189° |
| 2026-05-06 19:58 | 32.00649 | 34.87149 | 125 ft | 7 kts | 187° |
| 2026-05-06 19:59 | 32.00641 | 34.87148 | 122 ft | 0 kts | 188° |